createdAt,value
2022-09-28T00:00:42.159Z,12.94
2022-09-28T00:01:45.099Z,12.92
2022-09-28T00:02:47.651Z,12.91
2022-09-28T00:03:52.373Z,12.95
2022-09-28T00:04:55.063Z,13.02
2022-09-28T00:06:02.582Z,12.96
2022-09-28T00:07:04.808Z,12.98
2022-09-28T00:08:07.045Z,12.94
2022-09-28T00:09:09.434Z,12.98
2022-09-28T00:10:14.813Z,12.96
2022-09-28T00:11:20.160Z,12.96
2022-09-28T00:12:24.016Z,12.97
2022-09-28T00:13:26.301Z,12.98
2022-09-28T00:14:28.604Z,12.99
2022-09-28T00:15:30.895Z,12.98
2022-09-28T00:16:39.346Z,12.99
2022-09-28T00:17:41.844Z,13.00
2022-09-28T00:18:45.734Z,13.02
2022-09-28T00:19:48.456Z,13.03
2022-09-28T00:21:04.514Z,12.98
2022-09-28T00:22:07.318Z,12.95
2022-09-28T00:23:09.815Z,12.96
2022-09-28T00:24:22.964Z,12.95
2022-09-28T00:25:28.218Z,12.99
2022-09-28T00:26:32.978Z,12.97
2022-09-28T00:27:35.302Z,12.98
2022-09-28T00:28:37.608Z,12.98
2022-09-28T00:29:40.095Z,12.98
2022-09-28T00:30:42.410Z,12.98
2022-09-28T00:31:45.153Z,12.97
2022-09-28T00:32:47.620Z,12.98
2022-09-28T00:33:51.612Z,12.98
2022-09-28T00:34:54.038Z,13.00
2022-09-28T00:35:58.461Z,13.01
2022-09-28T00:37:02.525Z,13.01
2022-09-28T00:38:04.820Z,12.95
2022-09-28T00:39:08.634Z,12.98
2022-09-28T00:40:10.954Z,12.98
2022-09-28T00:41:16.087Z,12.96
2022-09-28T00:42:21.580Z,12.99
2022-09-28T00:43:24.715Z,12.95
2022-09-28T00:44:27.024Z,13.03
2022-09-28T00:45:29.433Z,12.98
2022-09-28T00:46:34.798Z,12.93
2022-09-28T00:47:50.034Z,13.00
2022-09-28T00:48:58.442Z,12.98
2022-09-28T00:50:10.361Z,12.96
2022-09-28T00:51:13.364Z,12.95
2022-09-28T00:52:23.624Z,12.96
2022-09-28T00:53:31.250Z,12.94
2022-09-28T00:54:34.419Z,12.93
2022-09-28T00:55:50.169Z,12.91
2022-09-28T00:56:56.075Z,12.85
2022-09-28T00:58:01.019Z,12.82
2022-09-28T00:59:07.564Z,12.77
2022-09-28T01:00:11.307Z,12.82
2022-09-28T01:01:14.962Z,12.80
2022-09-28T01:02:17.576Z,12.84
2022-09-28T01:03:25.232Z,12.77
2022-09-28T01:04:30.039Z,12.70
2022-09-28T01:05:34.548Z,12.65
2022-09-28T01:06:38.811Z,12.60
2022-09-28T01:07:42.994Z,12.62
2022-09-28T01:08:47.182Z,12.55
2022-09-28T01:09:50.787Z,12.49
2022-09-28T01:10:53.138Z,12.49
2022-09-28T01:11:55.592Z,12.52
2022-09-28T01:12:59.023Z,12.49
2022-09-28T01:14:01.678Z,12.37
2022-09-28T01:15:05.705Z,12.20
2022-09-28T01:16:23.761Z,12.19
2022-09-28T01:17:35.156Z,12.12
2022-09-28T01:18:45.380Z,12.24
2022-09-28T01:20:24.731Z,12.24
2022-09-28T01:21:27.507Z,12.14
2022-09-28T01:22:38.806Z,12.08
2022-09-28T01:24:20.415Z,12.09
2022-09-28T01:25:42.312Z,12.14
2022-09-28T01:27:03.025Z,12.09
2022-09-28T01:28:09.490Z,12.10
2022-09-28T01:29:21.699Z,12.17
2022-09-28T01:30:24.503Z,12.16
2022-09-28T01:31:32.526Z,12.14
2022-09-28T01:32:37.383Z,12.18
2022-09-28T01:33:47.603Z,12.12
2022-09-28T01:34:58.111Z,12.08
2022-09-28T01:36:10.583Z,12.03
2022-09-28T01:37:18.740Z,12.00
2022-09-28T01:38:43.740Z,12.01
2022-09-28T01:39:50.272Z,11.97
2022-09-28T01:40:54.446Z,11.92
2022-09-28T01:42:04.566Z,11.87
2022-09-28T01:43:12.756Z,11.88
2022-09-28T01:44:18.740Z,11.81
2022-09-28T01:45:31.980Z,11.75
2022-09-28T01:46:41.485Z,11.78
2022-09-28T01:47:48.599Z,11.77
2022-09-28T01:48:59.506Z,11.71
2022-09-28T01:50:08.705Z,11.73
2022-09-28T01:51:36.418Z,11.71
2022-09-28T01:52:51.874Z,11.70
2022-09-28T01:53:57.950Z,11.71
2022-09-28T01:55:07.566Z,11.61
2022-09-28T01:56:18.566Z,11.58
2022-09-28T01:57:23.495Z,11.64
2022-09-28T01:58:32.672Z,11.61
2022-09-28T01:59:38.723Z,11.57
2022-09-28T02:00:46.332Z,11.58
2022-09-28T02:02:16.774Z,11.41
2022-09-28T02:03:24.846Z,11.41
2022-09-28T02:04:42.925Z,11.43
2022-09-28T02:05:55.247Z,11.46
2022-09-28T02:07:03.588Z,11.44
2022-09-28T02:08:30.823Z,11.50
2022-09-28T02:09:39.826Z,11.41
2022-09-28T02:10:45.853Z,11.43
2022-09-28T02:11:55.124Z,11.44
2022-09-28T02:13:09.173Z,11.32
2022-09-28T02:14:14.967Z,11.31
2022-09-28T02:15:29.522Z,11.25
2022-09-28T02:16:58.305Z,11.07
2022-09-28T02:18:04.747Z,11.11
2022-09-28T02:19:12.400Z,11.11
2022-09-28T02:20:15.684Z,11.16
2022-09-28T02:21:21.420Z,11.15
2022-09-28T02:22:51.940Z,11.20
2022-09-28T02:24:02.717Z,11.26
2022-09-28T02:25:10.617Z,11.31
2022-09-28T02:26:18.238Z,11.24
2022-09-28T02:27:26.687Z,11.27
2022-09-28T02:28:28.985Z,11.28
2022-09-28T02:29:31.304Z,11.29
2022-09-28T02:30:36.876Z,11.26
2022-09-28T02:31:39.380Z,11.22
2022-09-28T02:32:46.780Z,11.23
2022-09-28T02:33:52.470Z,11.28
2022-09-28T02:34:55.854Z,11.27
2022-09-28T02:36:00.070Z,11.21
2022-09-28T02:37:04.108Z,11.22
2022-09-28T02:38:06.905Z,11.23
2022-09-28T02:39:18.002Z,11.15
2022-09-28T02:40:24.237Z,11.13
2022-09-28T02:41:40.080Z,11.11
2022-09-28T02:43:10.251Z,11.15
2022-09-28T02:44:46.979Z,11.16
2022-09-28T02:46:21.570Z,11.18
2022-09-28T02:47:46.907Z,11.18
2022-09-28T02:49:21.434Z,11.06
2022-09-28T02:50:45.033Z,11.02
2022-09-28T02:51:56.492Z,10.96
2022-09-28T02:53:01.504Z,11.00
2022-09-28T02:54:27.874Z,11.00
2022-09-28T02:55:57.046Z,10.96
2022-09-28T02:57:36.094Z,10.90
2022-09-28T02:59:09.791Z,10.93
2022-09-28T03:00:18.428Z,10.88
2022-09-28T03:01:32.897Z,10.89
2022-09-28T03:03:01.803Z,10.83
2022-09-28T03:04:21.535Z,10.71
2022-09-28T03:05:33.858Z,10.76
2022-09-28T03:06:42.304Z,10.76
2022-09-28T03:07:58.661Z,10.81
2022-09-28T03:09:04.754Z,10.86
2022-09-28T03:10:37.520Z,10.83
2022-09-28T03:12:03.876Z,10.73
2022-09-28T03:13:06.651Z,10.76
2022-09-28T03:14:11.753Z,10.72
2022-09-28T03:15:33.454Z,10.76
2022-09-28T03:16:36.407Z,10.72
2022-09-28T03:17:38.963Z,10.73
2022-09-28T03:18:41.826Z,10.78
2022-09-28T03:19:44.164Z,10.71
2022-09-28T03:20:47.699Z,10.68
2022-09-28T03:21:50.077Z,10.72
2022-09-28T03:23:19.832Z,10.75
2022-09-28T03:24:15.507Z,10.70
2022-09-28T03:25:18.217Z,10.70
2022-09-28T03:26:20.691Z,10.70
2022-09-28T03:27:23.730Z,10.74
2022-09-28T03:28:27.287Z,10.77
2022-09-28T03:29:31.587Z,10.78
2022-09-28T03:30:44.569Z,10.80
2022-09-28T03:31:48.177Z,10.77
2022-09-28T03:33:00.990Z,10.68
2022-09-28T03:34:05.902Z,10.68
2022-09-28T03:35:09.677Z,10.63
2022-09-28T03:36:12.120Z,10.59
2022-09-28T03:37:17.132Z,10.61
2022-09-28T03:38:20.690Z,10.50
2022-09-28T03:39:23.334Z,10.53
2022-09-28T03:40:26.054Z,10.54
2022-09-28T03:41:28.448Z,10.53
2022-09-28T03:42:31.318Z,10.44
2022-09-28T03:43:33.642Z,10.41
2022-09-28T03:44:37.872Z,10.48
2022-09-28T03:45:40.953Z,10.43
2022-09-28T03:46:43.643Z,10.46
2022-09-28T03:47:49.431Z,10.40
2022-09-28T03:48:57.860Z,10.44
2022-09-28T03:50:00.507Z,10.38
2022-09-28T03:51:09.347Z,10.41
2022-09-28T03:52:12.437Z,10.28
2022-09-28T03:53:14.741Z,10.33
2022-09-28T03:54:17.156Z,10.33
2022-09-28T03:55:19.519Z,10.35
2022-09-28T03:56:22.053Z,10.36
2022-09-28T03:57:24.385Z,10.38
2022-09-28T03:58:28.376Z,10.41
2022-09-28T03:59:31.027Z,10.39
2022-09-28T04:00:33.476Z,10.39
2022-09-28T04:01:35.939Z,10.38
2022-09-28T04:02:38.686Z,10.38
2022-09-28T04:03:41.195Z,10.30
2022-09-28T04:04:43.481Z,10.26
2022-09-28T04:05:50.306Z,10.32
2022-09-28T04:06:52.788Z,10.29
2022-09-28T04:07:58.662Z,10.33
2022-09-28T04:09:01.356Z,10.33
2022-09-28T04:10:05.384Z,10.34
2022-09-28T04:11:08.111Z,10.36
2022-09-28T04:12:10.620Z,10.34
2022-09-28T04:13:13.031Z,10.32
2022-09-28T04:14:16.641Z,10.30
2022-09-28T04:15:19.064Z,10.25
2022-09-28T04:16:21.716Z,10.26
2022-09-28T04:17:50.409Z,10.24
2022-09-28T04:19:10.825Z,10.19
2022-09-28T04:20:41.651Z,10.23
2022-09-28T04:21:50.741Z,10.25
2022-09-28T04:22:53.390Z,10.12
2022-09-28T04:23:55.993Z,10.14
2022-09-28T04:24:58.398Z,10.19
2022-09-28T04:26:01.020Z,10.23
2022-09-28T04:27:26.937Z,10.21
2022-09-28T04:28:47.942Z,10.23
2022-09-28T04:29:50.561Z,10.22
2022-09-28T04:30:53.587Z,10.17
2022-09-28T04:31:57.718Z,10.19
2022-09-28T04:33:10.835Z,10.24
2022-09-28T04:34:15.088Z,10.25
2022-09-28T04:35:17.658Z,10.26
2022-09-28T04:36:20.302Z,10.28
2022-09-28T04:37:22.768Z,10.29
2022-09-28T04:38:48.461Z,10.21
2022-09-28T04:39:48.810Z,10.15
2022-09-28T04:40:54.482Z,10.13
2022-09-28T04:41:56.833Z,10.12
2022-09-28T04:42:59.227Z,10.19
2022-09-28T04:44:02.252Z,10.19
2022-09-28T04:45:05.207Z,10.26
2022-09-28T04:46:11.045Z,10.27
2022-09-28T04:47:19.443Z,10.24
2022-09-28T04:48:41.722Z,10.27
2022-09-28T04:49:53.975Z,10.11
2022-09-28T04:51:02.305Z,10.18
2022-09-28T04:52:06.082Z,10.14
2022-09-28T04:53:10.429Z,10.19
2022-09-28T04:54:12.840Z,10.21
2022-09-28T04:55:15.376Z,10.14
2022-09-28T04:56:19.181Z,10.11
2022-09-28T04:57:22.118Z,10.12
2022-09-28T04:58:25.089Z,10.15
2022-09-28T04:59:27.528Z,10.14
2022-09-28T05:00:33.228Z,10.13
2022-09-28T05:01:50.712Z,10.09
2022-09-28T05:03:11.833Z,10.20
2022-09-28T05:04:32.860Z,10.24
2022-09-28T05:05:48.201Z,10.29
2022-09-28T05:07:16.021Z,10.30
2022-09-28T05:08:18.922Z,10.29
2022-09-28T05:09:21.379Z,10.19
2022-09-28T05:10:24.486Z,10.18
2022-09-28T05:11:28.025Z,10.19
2022-09-28T05:12:30.399Z,10.23
2022-09-28T05:13:40.844Z,10.23
2022-09-28T05:14:43.122Z,10.13
2022-09-28T05:15:46.152Z,10.20
2022-09-28T05:16:50.016Z,10.27
2022-09-28T05:18:15.098Z,10.28
2022-09-28T05:19:23.308Z,10.27
2022-09-28T05:20:27.928Z,10.30
2022-09-28T05:21:31.041Z,10.30
2022-09-28T05:22:33.589Z,10.36
2022-09-28T05:23:36.023Z,10.36
2022-09-28T05:24:38.507Z,10.39
2022-09-28T05:25:41.560Z,10.39
2022-09-28T05:26:52.917Z,10.39
2022-09-28T05:27:58.485Z,10.41
2022-09-28T05:29:32.237Z,10.45
2022-09-28T05:30:53.699Z,10.52
2022-09-28T05:32:14.441Z,10.54
2022-09-28T05:33:26.124Z,10.56
2022-09-28T05:34:42.881Z,10.62
2022-09-28T05:35:55.148Z,10.61
2022-09-28T05:36:59.271Z,10.69
2022-09-28T05:38:05.779Z,10.70
2022-09-28T05:39:09.972Z,10.75
2022-09-28T05:40:12.566Z,10.72
2022-09-28T05:41:17.946Z,10.75
2022-09-28T05:42:20.459Z,10.79
2022-09-28T05:43:23.020Z,10.83
2022-09-28T05:44:26.094Z,10.74
2022-09-28T05:45:30.483Z,10.77
2022-09-28T05:46:32.918Z,10.83
2022-09-28T05:47:41.268Z,10.95
2022-09-28T05:48:44.192Z,11.05
2022-09-28T05:49:46.485Z,11.05
2022-09-28T05:50:52.816Z,11.04
2022-09-28T05:51:56.153Z,11.05
2022-09-28T05:53:02.967Z,11.11
2022-09-28T05:54:13.425Z,11.23
2022-09-28T05:55:19.797Z,13.57
2022-09-28T05:56:22.341Z,15.04
2022-09-28T05:57:26.126Z,15.74
2022-09-28T05:58:29.010Z,14.85
2022-09-28T05:59:37.415Z,14.63
2022-09-28T06:00:41.412Z,15.42
2022-09-28T06:01:43.818Z,15.97
2022-09-28T06:03:10.944Z,15.86
2022-09-28T06:04:14.913Z,14.57
2022-09-28T06:05:19.021Z,14.71
2022-09-28T06:06:23.965Z,14.65
2022-09-28T06:07:26.780Z,14.46
2022-09-28T06:08:33.133Z,15.91
2022-09-28T06:10:13.913Z,16.33
2022-09-28T06:11:17.884Z,15.52
2022-09-28T06:12:20.603Z,14.60
2022-09-28T06:13:24.839Z,13.89
2022-09-28T06:14:27.657Z,13.40
2022-09-28T06:15:32.088Z,13.06
2022-09-28T06:16:38.281Z,13.13
2022-09-28T06:17:45.067Z,13.27
2022-09-28T06:19:07.103Z,13.05
2022-09-28T06:20:48.554Z,12.73
2022-09-28T06:21:52.496Z,12.58
2022-09-28T06:22:55.451Z,12.57
2022-09-28T06:23:58.068Z,12.41
2022-09-28T06:25:00.956Z,12.50
2022-09-28T06:26:03.618Z,13.23
2022-09-28T06:27:06.706Z,14.22
2022-09-28T06:28:14.516Z,14.90
2022-09-28T06:29:19.588Z,14.70
2022-09-28T06:30:27.088Z,14.46
2022-09-28T06:31:31.406Z,14.21
2022-09-28T06:32:34.328Z,13.94
2022-09-28T06:33:38.811Z,13.81
2022-09-28T06:34:42.957Z,14.10
2022-09-28T06:35:45.457Z,14.06
2022-09-28T06:36:49.058Z,13.77
2022-09-28T06:37:52.524Z,14.64
2022-09-28T06:38:55.617Z,15.80
2022-09-28T06:39:58.575Z,17.20
2022-09-28T06:41:01.201Z,18.67
2022-09-28T06:42:04.113Z,19.41
2022-09-28T06:43:28.910Z,20.68
2022-09-28T06:44:52.298Z,20.40
2022-09-28T06:46:17.977Z,21.13
2022-09-28T06:47:24.256Z,20.90
2022-09-28T06:48:45.931Z,21.92
2022-09-28T06:49:55.517Z,21.21
2022-09-28T06:51:21.271Z,21.59
2022-09-28T06:52:33.492Z,21.16
2022-09-28T06:53:42.294Z,21.39
2022-09-28T06:54:50.114Z,20.92
2022-09-28T06:56:07.427Z,21.25
2022-09-28T06:57:10.403Z,21.64
2022-09-28T06:58:16.300Z,21.79
2022-09-28T06:59:20.492Z,21.66
2022-09-28T07:00:23.129Z,21.72
2022-09-28T07:01:25.688Z,21.45
2022-09-28T07:02:42.875Z,21.20
2022-09-28T07:04:03.385Z,21.23
2022-09-28T07:05:27.688Z,21.27
2022-09-28T07:06:39.597Z,21.57
2022-09-28T07:08:08.589Z,21.43
2022-09-28T07:09:32.173Z,21.38
2022-09-28T07:11:08.449Z,21.72
2022-09-28T07:12:40.850Z,21.54
2022-09-28T07:14:01.535Z,21.90
2022-09-28T07:15:07.548Z,20.91
2022-09-28T07:16:10.192Z,20.81
2022-09-28T07:17:14.447Z,20.90
2022-09-28T07:18:19.221Z,21.74
2022-09-28T07:19:21.989Z,21.72
2022-09-28T07:20:39.857Z,21.31
2022-09-28T07:21:58.937Z,21.46
2022-09-28T07:23:17.225Z,20.64
2022-09-28T07:24:41.021Z,20.68
2022-09-28T07:26:24.390Z,21.33
2022-09-28T07:28:00.582Z,20.72
2022-09-28T07:29:20.863Z,21.01
2022-09-28T07:30:36.782Z,20.74
2022-09-28T07:32:14.363Z,20.87
2022-09-28T07:33:51.458Z,20.97
2022-09-28T07:35:09.405Z,20.71
2022-09-28T07:36:21.151Z,21.11
2022-09-28T07:37:25.083Z,20.34
2022-09-28T07:38:28.108Z,20.59
2022-09-28T07:39:31.665Z,20.63
2022-09-28T07:40:54.884Z,20.23
2022-09-28T07:42:02.520Z,20.59
2022-09-28T07:43:06.275Z,20.10
2022-09-28T07:44:08.801Z,20.01
2022-09-28T07:45:12.338Z,19.69
2022-09-28T07:46:15.074Z,19.52
2022-09-28T07:47:30.894Z,19.42
2022-09-28T07:49:09.836Z,19.34
2022-09-28T07:50:33.581Z,19.56
2022-09-28T07:51:50.195Z,19.11
2022-09-28T07:52:58.934Z,18.56
2022-09-28T07:54:06.719Z,18.57
2022-09-28T07:55:22.157Z,18.29
2022-09-28T07:56:46.224Z,18.11
2022-09-28T07:57:56.471Z,18.18
2022-09-28T07:59:18.005Z,18.31
2022-09-28T08:00:39.418Z,18.36
2022-09-28T08:01:44.743Z,18.44
2022-09-28T08:02:50.178Z,18.16
2022-09-28T08:03:57.178Z,18.05
2022-09-28T08:05:00.011Z,18.12
2022-09-28T08:06:07.670Z,18.08
2022-09-28T08:07:11.658Z,18.26
2022-09-28T08:08:16.051Z,18.41
2022-09-28T08:09:19.193Z,18.04
2022-09-28T08:10:46.528Z,18.24
2022-09-28T08:12:19.967Z,17.84
2022-09-28T08:14:09.824Z,18.35
2022-09-28T08:15:42.447Z,18.21
2022-09-28T08:16:56.237Z,18.55
2022-09-28T08:18:10.846Z,18.54
2022-09-28T08:19:13.515Z,18.59
2022-09-28T08:20:34.869Z,18.85
2022-09-28T08:21:46.230Z,18.67
2022-09-28T08:22:49.306Z,18.25
2022-09-28T08:23:52.256Z,18.55
2022-09-28T08:24:54.762Z,18.82
2022-09-28T08:25:57.365Z,18.76
2022-09-28T08:27:00.753Z,18.46
2022-09-28T08:28:08.999Z,18.93
2022-09-28T08:29:18.747Z,18.97
2022-09-28T08:30:27.636Z,19.18
2022-09-28T08:32:09.551Z,18.53
2022-09-28T08:33:31.856Z,19.26
2022-09-28T08:35:09.415Z,19.30
2022-09-28T08:36:21.126Z,19.13
2022-09-28T08:37:33.991Z,19.47
2022-09-28T08:38:55.383Z,19.46
2022-09-28T08:40:25.132Z,19.75
2022-09-28T08:41:58.780Z,19.20
2022-09-28T08:43:56.121Z,19.26
2022-09-28T08:45:15.624Z,19.77
2022-09-28T08:46:47.944Z,20.13
2022-09-28T08:48:36.874Z,19.36
2022-09-28T08:50:01.106Z,19.38
2022-09-28T08:51:37.039Z,19.85
2022-09-28T08:53:00.082Z,20.09
2022-09-28T08:54:52.160Z,20.16
2022-09-28T08:56:12.258Z,20.01
2022-09-28T08:57:20.488Z,20.03
2022-09-28T08:58:36.196Z,20.37
2022-09-28T09:01:49.592Z,20.04
2022-09-28T09:03:20.981Z,20.24
2022-09-28T09:04:41.354Z,20.16
2022-09-28T09:06:36.699Z,19.64
2022-09-28T09:08:16.649Z,19.92
2022-09-28T09:09:36.871Z,20.01
2022-09-28T09:10:43.422Z,20.62
2022-09-28T09:12:11.237Z,19.99
2022-09-28T09:14:03.422Z,20.13
2022-09-28T09:15:32.737Z,20.01
2022-09-28T09:18:40.877Z,20.52
2022-09-28T09:20:36.445Z,20.53
2022-09-28T09:22:05.391Z,20.61
2022-09-28T09:23:28.633Z,20.18
2022-09-28T09:24:43.601Z,20.16
2022-09-28T09:25:53.329Z,19.88
2022-09-28T09:27:07.103Z,20.80
2022-09-28T09:28:45.304Z,20.69
2022-09-28T09:30:55.439Z,20.88
2022-09-28T09:32:14.226Z,20.26
2022-09-28T09:35:30.392Z,20.42
2022-09-28T09:37:08.630Z,20.69
2022-09-28T09:38:43.212Z,20.91
2022-09-28T09:40:04.057Z,20.37
2022-09-28T09:41:54.782Z,20.45
2022-09-28T09:43:39.885Z,20.50
2022-09-28T09:45:31.618Z,20.64
2022-09-28T09:47:11.234Z,20.54
2022-09-28T09:48:48.296Z,20.89
2022-09-28T09:50:21.079Z,20.92
2022-09-28T09:51:47.150Z,21.01
2022-09-28T09:54:29.757Z,21.02
2022-09-28T09:55:51.850Z,20.68
2022-09-28T09:57:10.419Z,20.69
2022-09-28T09:58:46.456Z,20.84
2022-09-28T09:59:57.470Z,21.26
2022-09-28T10:01:20.289Z,21.02
2022-09-28T10:02:43.438Z,20.64
2022-09-28T10:04:01.209Z,21.04
2022-09-28T10:05:12.422Z,21.47
2022-09-28T10:06:25.381Z,21.15
2022-09-28T10:08:09.127Z,21.58
2022-09-28T10:09:44.711Z,20.85
2022-09-28T10:11:19.409Z,21.58
2022-09-28T10:12:27.024Z,21.69
2022-09-28T10:13:32.394Z,21.69
2022-09-28T10:14:41.018Z,21.54
2022-09-28T10:15:53.327Z,21.41
2022-09-28T10:17:08.368Z,22.46
2022-09-28T10:18:38.808Z,22.09
2022-09-28T10:20:01.571Z,21.27
2022-09-28T10:21:33.126Z,21.82
2022-09-28T10:22:47.067Z,21.73
2022-09-28T10:24:45.496Z,21.63
2022-09-28T10:25:55.097Z,22.23
2022-09-28T10:27:04.711Z,22.41
2022-09-28T10:28:21.251Z,22.20
2022-09-28T10:29:27.615Z,22.66
2022-09-28T10:30:46.684Z,22.79
2022-09-28T10:32:37.879Z,22.34
2022-09-28T10:33:50.421Z,22.39
2022-09-28T10:35:44.426Z,22.20
2022-09-28T10:37:00.348Z,22.27
2022-09-28T10:38:22.291Z,22.98
2022-09-28T10:42:10.347Z,21.91
2022-09-28T10:43:25.052Z,22.09
2022-09-28T10:44:35.059Z,22.43
2022-09-28T10:46:12.796Z,22.19
2022-09-28T10:47:28.013Z,22.35
2022-09-28T10:48:48.671Z,22.25
2022-09-28T10:49:53.829Z,21.94
2022-09-28T10:51:08.536Z,22.57
2022-09-28T10:52:42.752Z,22.70
2022-09-28T10:54:02.140Z,23.05
2022-09-28T10:55:25.911Z,22.74
2022-09-28T10:56:37.348Z,23.25
2022-09-28T10:57:45.978Z,23.48
2022-09-28T10:58:48.689Z,22.73
2022-09-28T10:59:58.972Z,22.96
2022-09-28T11:01:11.196Z,23.03
2022-09-28T11:02:22.704Z,22.90
2022-09-28T11:03:29.883Z,22.76
2022-09-28T11:04:41.950Z,22.58
2022-09-28T11:06:03.382Z,23.25
2022-09-28T11:07:21.185Z,22.60
2022-09-28T11:08:40.422Z,22.53
2022-09-28T11:09:49.257Z,22.14
2022-09-28T11:11:07.030Z,22.69
2022-09-28T11:12:15.631Z,22.53
2022-09-28T11:13:18.635Z,22.55
2022-09-28T11:14:42.509Z,22.44
2022-09-28T11:15:54.973Z,22.10
2022-09-28T11:17:27.827Z,21.20
2022-09-28T11:18:32.600Z,21.48
2022-09-28T11:19:42.502Z,22.17
2022-09-28T11:20:47.868Z,22.22
2022-09-28T11:21:51.353Z,22.27
2022-09-28T11:23:18.146Z,22.07
2022-09-28T11:24:21.136Z,22.42
2022-09-28T11:25:27.162Z,21.85
2022-09-28T11:26:39.286Z,22.26
2022-09-28T11:27:57.193Z,21.49
2022-09-28T11:28:59.574Z,21.10
2022-09-28T11:30:38.913Z,21.97
2022-09-28T11:32:19.357Z,21.99
2022-09-28T11:34:07.368Z,22.28
2022-09-28T11:35:20.048Z,21.16
2022-09-28T11:36:47.144Z,20.68
2022-09-28T11:37:58.844Z,21.56
2022-09-28T11:39:46.354Z,22.54
2022-09-28T11:41:13.509Z,22.59
2022-09-28T11:42:32.626Z,22.50
2022-09-28T11:43:43.789Z,22.29
2022-09-28T11:44:48.532Z,21.97
2022-09-28T11:46:08.978Z,22.16
2022-09-28T11:47:29.785Z,22.01
2022-09-28T11:48:58.424Z,22.23
2022-09-28T11:50:35.892Z,22.22
2022-09-28T11:51:41.564Z,21.77
2022-09-28T11:52:45.223Z,21.87
2022-09-28T11:53:55.509Z,22.13
2022-09-28T11:55:27.247Z,22.06
2022-09-28T11:56:38.623Z,22.22
2022-09-28T11:57:45.567Z,22.40
2022-09-28T11:58:55.638Z,22.84
2022-09-28T12:00:14.952Z,23.14
2022-09-28T12:01:48.004Z,22.84
2022-09-28T12:03:13.977Z,22.38
2022-09-28T12:04:16.923Z,22.59
2022-09-28T12:05:34.080Z,22.75
2022-09-28T12:06:48.130Z,22.30
2022-09-28T12:08:00.047Z,22.71
2022-09-28T12:09:33.559Z,22.43
2022-09-28T12:10:55.691Z,22.49
2022-09-28T12:12:32.880Z,21.67
2022-09-28T12:13:44.860Z,21.75
2022-09-28T12:14:47.912Z,21.85
2022-09-28T12:17:21.025Z,21.53
2022-09-28T12:18:52.368Z,21.04
2022-09-28T12:20:16.472Z,21.57
2022-09-28T12:21:31.438Z,20.91
2022-09-28T12:23:00.527Z,21.24
2022-09-28T12:24:13.238Z,21.24
2022-09-28T12:25:19.661Z,21.83
2022-09-28T12:26:34.634Z,22.28
2022-09-28T12:28:07.921Z,21.99
2022-09-28T12:29:26.769Z,21.42
2022-09-28T12:30:37.801Z,21.57
2022-09-28T12:32:04.570Z,21.35
2022-09-28T12:33:18.259Z,21.03
2022-09-28T12:34:22.394Z,21.55
2022-09-28T12:36:01.321Z,21.86
2022-09-28T12:37:13.210Z,21.88
2022-09-28T12:39:31.043Z,21.99
2022-09-28T12:40:57.949Z,22.27
2022-09-28T12:42:39.407Z,22.22
2022-09-28T12:43:59.208Z,22.31
2022-09-28T12:45:20.159Z,21.76
2022-09-28T12:46:25.920Z,21.67
2022-09-28T12:48:00.196Z,21.89
2022-09-28T12:50:20.110Z,21.77
2022-09-28T12:50:57.136Z,21.37
2022-09-28T12:52:07.400Z,21.57
2022-09-28T12:53:31.294Z,21.58
2022-09-28T12:54:54.819Z,21.81
2022-09-28T12:56:08.737Z,21.24
2022-09-28T12:57:39.064Z,21.45
2022-09-28T12:58:50.643Z,21.65
2022-09-28T12:59:53.172Z,21.25
2022-09-28T13:01:08.597Z,21.37
2022-09-28T13:02:32.660Z,21.66
2022-09-28T13:04:12.768Z,21.63
2022-09-28T13:05:37.908Z,21.14
2022-09-28T13:07:07.640Z,20.83
2022-09-28T13:08:15.463Z,21.07
2022-09-28T13:09:26.561Z,21.10
2022-09-28T13:11:04.253Z,21.16
2022-09-28T13:12:28.481Z,21.11
2022-09-28T13:14:03.400Z,20.87
2022-09-28T13:15:29.601Z,20.83
2022-09-28T13:16:51.025Z,21.08
2022-09-28T13:18:16.160Z,21.12
2022-09-28T13:19:34.641Z,21.28
2022-09-28T13:20:49.875Z,21.18
2022-09-28T13:22:22.764Z,21.13
2022-09-28T13:23:34.733Z,21.14
2022-09-28T13:24:44.535Z,20.83
2022-09-28T13:25:57.370Z,20.75
2022-09-28T13:27:07.332Z,20.44
2022-09-28T13:28:12.463Z,20.70
2022-09-28T13:29:18.938Z,20.43
2022-09-28T13:30:22.100Z,20.52
2022-09-28T13:31:33.053Z,20.61
2022-09-28T13:32:39.188Z,20.80
2022-09-28T13:33:44.660Z,20.43
2022-09-28T13:34:50.817Z,20.44
2022-09-28T13:35:53.324Z,20.19
2022-09-28T13:37:10.181Z,20.38
2022-09-28T13:38:19.506Z,20.26
2022-09-28T13:39:44.249Z,20.42
2022-09-28T13:41:04.819Z,20.25
2022-09-28T13:42:09.925Z,20.29
2022-09-28T13:43:28.866Z,20.52
2022-09-28T13:45:06.562Z,20.23
2022-09-28T13:46:37.433Z,20.45
2022-09-28T13:47:54.489Z,20.75
2022-09-28T13:49:22.823Z,20.58
2022-09-28T13:50:43.386Z,20.86
2022-09-28T13:52:26.631Z,20.24
2022-09-28T13:53:54.215Z,20.30
2022-09-28T13:55:21.205Z,19.99
2022-09-28T13:56:26.555Z,20.22
2022-09-28T13:57:44.088Z,20.32
2022-09-28T13:58:59.341Z,20.19
2022-09-28T14:00:07.647Z,20.61
2022-09-28T14:01:40.211Z,20.24
2022-09-28T14:02:48.011Z,20.41
2022-09-28T14:04:16.405Z,20.26
2022-09-28T14:05:21.984Z,20.31
2022-09-28T14:06:31.147Z,20.25
2022-09-28T14:07:36.150Z,20.24
2022-09-28T14:08:44.205Z,19.96
2022-09-28T14:09:48.733Z,19.90
2022-09-28T14:11:36.966Z,20.04
2022-09-28T14:13:04.189Z,19.97
2022-09-28T14:14:14.453Z,19.97
2022-09-28T14:15:29.323Z,19.76
2022-09-28T14:16:34.082Z,19.66
2022-09-28T14:17:53.950Z,19.65
2022-09-28T14:19:08.492Z,19.61
2022-09-28T14:20:16.577Z,19.56
2022-09-28T14:21:37.886Z,19.71
2022-09-28T14:23:15.240Z,19.64
2022-09-28T14:24:36.316Z,19.45
2022-09-28T14:26:15.089Z,19.49
2022-09-28T14:27:20.520Z,19.42
2022-09-28T14:28:49.326Z,19.30
2022-09-28T14:30:06.701Z,19.34
2022-09-28T14:31:28.390Z,19.40
2022-09-28T14:32:38.528Z,19.36
2022-09-28T14:33:43.205Z,19.07
2022-09-28T14:34:48.346Z,18.88
2022-09-28T14:35:56.330Z,18.71
2022-09-28T14:37:22.724Z,18.62
2022-09-28T14:38:49.591Z,18.29
2022-09-28T14:40:10.397Z,18.19
2022-09-28T14:41:28.498Z,17.86
2022-09-28T14:42:31.386Z,17.85
2022-09-28T14:43:45.748Z,17.88
2022-09-28T14:45:06.439Z,17.64
2022-09-28T14:46:15.861Z,17.55
2022-09-28T14:47:41.112Z,17.54
2022-09-28T14:48:43.740Z,17.28
2022-09-28T14:49:47.980Z,17.45
2022-09-28T14:50:50.426Z,17.43
2022-09-28T14:51:56.206Z,17.28
2022-09-28T14:53:20.937Z,17.14
2022-09-28T14:54:43.691Z,17.21
2022-09-28T14:55:55.830Z,17.16
2022-09-28T14:57:05.273Z,17.19
2022-09-28T14:58:19.871Z,17.17
2022-09-28T14:59:26.069Z,17.16
2022-09-28T15:00:32.055Z,17.13
2022-09-28T15:01:36.542Z,17.06
2022-09-28T15:02:39.763Z,16.92
2022-09-28T15:03:44.242Z,16.98
2022-09-28T15:05:14.478Z,16.92
2022-09-28T15:06:19.938Z,16.77
2022-09-28T15:07:43.610Z,16.82
2022-09-28T15:08:46.451Z,16.78
2022-09-28T15:09:54.472Z,16.83
2022-09-28T15:10:58.910Z,16.82
2022-09-28T15:12:03.322Z,16.84
2022-09-28T15:13:25.052Z,16.73
2022-09-28T15:14:32.384Z,16.77
2022-09-28T15:15:41.614Z,16.67
2022-09-28T15:17:20.778Z,16.63
2022-09-28T15:18:29.337Z,16.60
2022-09-28T15:19:50.379Z,16.64
2022-09-28T15:20:53.082Z,16.46
2022-09-28T15:22:01.176Z,16.41
2022-09-28T15:23:03.792Z,16.39
2022-09-28T15:24:32.366Z,16.43
2022-09-28T15:25:36.090Z,16.36
2022-09-28T15:26:38.665Z,16.26
2022-09-28T15:27:43.028Z,16.23
2022-09-28T15:28:45.937Z,16.23
2022-09-28T15:30:01.752Z,16.26
2022-09-28T15:31:05.774Z,16.22
2022-09-28T15:32:23.256Z,16.21
2022-09-28T15:34:00.923Z,16.22
2022-09-28T15:35:29.350Z,16.17
2022-09-28T15:36:53.964Z,16.13
2022-09-28T15:39:03.662Z,16.10
2022-09-28T15:39:48.631Z,15.95
2022-09-28T15:40:54.882Z,15.88
2022-09-28T15:42:03.873Z,15.83
2022-09-28T15:43:31.614Z,15.85
2022-09-28T15:45:33.795Z,15.88
2022-09-28T15:46:59.548Z,15.76
2022-09-28T15:48:21.609Z,15.70
2022-09-28T15:50:27.910Z,15.63
2022-09-28T15:51:20.276Z,15.60
2022-09-28T15:52:31.478Z,15.41
2022-09-28T15:53:34.287Z,15.30
2022-09-28T15:54:49.467Z,15.27
2022-09-28T15:56:13.619Z,15.31
2022-09-28T15:57:33.528Z,15.25
2022-09-28T15:58:40.173Z,15.23
2022-09-28T16:00:02.941Z,15.16
2022-09-28T16:01:36.891Z,14.99
2022-09-28T16:03:04.578Z,14.84
2022-09-28T16:04:34.791Z,14.81